createdAt,value
2018-12-30T00:00:58.314Z,87.78
2018-12-30T00:03:29.270Z,88.20
2018-12-30T00:06:00.801Z,88.12
2018-12-30T00:08:32.349Z,87.86
2018-12-30T00:11:03.261Z,87.56
2018-12-30T00:13:34.866Z,87.38
2018-12-30T00:16:06.428Z,87.13
2018-12-30T00:18:37.328Z,86.87
2018-12-30T00:21:09.176Z,86.93
2018-12-30T00:23:40.609Z,86.93
2018-12-30T00:26:11.423Z,86.91
2018-12-30T00:28:42.360Z,86.74
2018-12-30T00:31:13.208Z,86.73
2018-12-30T00:33:44.439Z,86.67
2018-12-30T00:36:15.363Z,86.55
2018-12-30T00:38:46.221Z,86.89
2018-12-30T00:41:17.211Z,86.97
2018-12-30T00:43:48.923Z,87.22
2018-12-30T00:46:21.360Z,87.05
2018-12-30T00:48:52.410Z,87.00
2018-12-30T00:51:23.269Z,87.30
2018-12-30T00:53:54.161Z,87.63
2018-12-30T00:56:25.105Z,87.26
2018-12-30T00:58:56.296Z,86.89
2018-12-30T01:01:27.473Z,86.74
2018-12-30T01:03:58.311Z,86.79
2018-12-30T01:06:29.435Z,86.56
2018-12-30T01:09:00.402Z,86.59
2018-12-30T01:11:31.224Z,86.20
2018-12-30T01:14:02.306Z,85.86
2018-12-30T01:16:33.167Z,85.58
2018-12-30T01:19:04.324Z,85.42
2018-12-30T01:21:35.377Z,85.46
2018-12-30T01:24:06.404Z,85.44
2018-12-30T01:26:37.469Z,85.61
2018-12-30T01:29:08.298Z,85.63
2018-12-30T01:31:40.330Z,85.85
2018-12-30T01:34:11.273Z,86.01
2018-12-30T01:36:42.210Z,86.46
2018-12-30T01:39:13.243Z,85.84
2018-12-30T01:41:44.117Z,85.63
2018-12-30T01:44:15.581Z,85.61
2018-12-30T01:46:46.516Z,85.58
2018-12-30T01:49:17.405Z,85.44
2018-12-30T01:51:48.534Z,85.48
2018-12-30T01:54:19.885Z,85.57
2018-12-30T01:56:51.009Z,85.86
2018-12-30T01:59:22.081Z,85.48
2018-12-30T02:01:53.079Z,85.50
2018-12-30T02:04:24.608Z,85.95
2018-12-30T02:06:55.816Z,85.58
2018-12-30T02:09:26.945Z,85.52
2018-12-30T02:11:58.145Z,85.38
2018-12-30T02:14:29.310Z,85.30
2018-12-30T02:17:01.493Z,85.51
2018-12-30T02:19:32.367Z,85.41
2018-12-30T02:22:03.242Z,85.86
2018-12-30T02:24:34.235Z,86.08
2018-12-30T02:27:05.576Z,86.70
2018-12-30T02:29:36.697Z,86.32
2018-12-30T02:32:07.550Z,86.61
2018-12-30T02:34:38.411Z,86.78
2018-12-30T02:37:09.421Z,86.80
2018-12-30T02:39:40.340Z,86.79
2018-12-30T02:42:11.306Z,87.04
2018-12-30T02:44:42.325Z,87.02
2018-12-30T02:47:13.341Z,87.15
2018-12-30T02:49:44.342Z,87.83
2018-12-30T02:52:15.250Z,87.54
2018-12-30T02:54:46.405Z,87.66
2018-12-30T02:57:17.287Z,87.86
2018-12-30T02:59:48.775Z,87.75
2018-12-30T03:02:20.026Z,88.27
2018-12-30T03:04:51.073Z,88.99
2018-12-30T03:07:21.969Z,88.82
2018-12-30T03:09:53.260Z,88.91
2018-12-30T03:12:24.210Z,89.13
2018-12-30T03:14:55.302Z,89.31
2018-12-30T03:17:26.410Z,89.60
2018-12-30T03:19:58.362Z,90.11
2018-12-30T03:22:29.311Z,89.77
2018-12-30T03:25:00.349Z,89.47
2018-12-30T03:27:31.207Z,89.47
2018-12-30T03:30:02.351Z,89.97
2018-12-30T03:32:33.316Z,89.66
2018-12-30T03:35:04.428Z,89.96
2018-12-30T03:37:35.286Z,89.55
2018-12-30T03:40:07.891Z,90.46
2018-12-30T03:42:40.316Z,89.73
2018-12-30T03:45:11.248Z,89.73
2018-12-30T03:47:42.168Z,90.18
2018-12-30T03:50:13.077Z,90.56
2018-12-30T03:52:44.357Z,89.95
2018-12-30T03:55:15.217Z,90.32
2018-12-30T03:57:46.276Z,90.63
2018-12-30T04:00:17.375Z,90.46
2018-12-30T04:02:49.353Z,90.42
2018-12-30T04:05:20.275Z,90.44
2018-12-30T04:07:51.105Z,90.07
2018-12-30T04:10:21.982Z,90.54
2018-12-30T04:12:53.178Z,90.74
2018-12-30T04:15:24.030Z,90.52
2018-12-30T04:17:55.325Z,90.75
2018-12-30T04:20:26.201Z,90.32
2018-12-30T04:22:57.334Z,90.84
2018-12-30T04:25:28.350Z,91.19
2018-12-30T04:27:59.173Z,91.40
2018-12-30T04:30:30.152Z,91.76
2018-12-30T04:33:01.397Z,91.73
2018-12-30T04:35:32.253Z,91.81
2018-12-30T04:38:03.349Z,92.48
2018-12-30T04:40:34.291Z,92.19
2018-12-30T04:43:05.515Z,92.20
2018-12-30T04:45:36.448Z,92.09
2018-12-30T04:48:07.268Z,91.83
2018-12-30T04:50:39.865Z,91.94
2018-12-30T04:53:11.202Z,91.95
2018-12-30T04:55:42.407Z,91.87
2018-12-30T04:58:13.272Z,91.81
2018-12-30T05:00:44.124Z,91.80
2018-12-30T05:03:15.316Z,91.73
2018-12-30T05:05:46.264Z,91.86
2018-12-30T05:08:17.279Z,91.69
2018-12-30T05:10:48.125Z,91.55
2018-12-30T05:13:19.403Z,91.77
2018-12-30T05:15:50.457Z,91.59
2018-12-30T05:18:21.276Z,91.60
2018-12-30T05:20:52.419Z,91.22
2018-12-30T05:23:23.422Z,91.04
2018-12-30T05:25:54.316Z,91.18
2018-12-30T05:28:25.229Z,91.24
2018-12-30T05:30:56.066Z,91.21
2018-12-30T05:33:27.122Z,90.76
2018-12-30T05:35:58.209Z,90.80
2018-12-30T05:38:29.064Z,90.44
2018-12-30T05:40:59.995Z,90.61
2018-12-30T05:43:32.314Z,90.79
2018-12-30T05:46:03.233Z,91.02
2018-12-30T05:48:34.292Z,90.74
2018-12-30T05:51:05.152Z,90.77
2018-12-30T05:53:36.535Z,90.79
2018-12-30T05:56:07.671Z,90.43
2018-12-30T05:58:38.837Z,90.29
2018-12-30T06:01:10.050Z,90.66
2018-12-30T06:03:41.239Z,90.55
2018-12-30T06:06:12.262Z,90.55
2018-12-30T06:08:43.106Z,90.56
2018-12-30T06:11:14.088Z,90.55
2018-12-30T06:13:45.078Z,90.73
2018-12-30T06:16:16.229Z,90.54
2018-12-30T06:18:47.467Z,90.35
2018-12-30T06:21:18.325Z,90.37
2018-12-30T06:23:49.372Z,90.26
2018-12-30T06:26:20.515Z,90.57
2018-12-30T06:28:51.374Z,90.61
2018-12-30T06:31:22.520Z,90.35
2018-12-30T06:33:53.370Z,90.36
2018-12-30T06:36:24.736Z,90.52
2018-12-30T06:38:56.036Z,90.38
2018-12-30T06:41:27.203Z,90.16
2018-12-30T06:43:58.204Z,90.40
2018-12-30T06:46:29.283Z,90.06
2018-12-30T06:49:00.239Z,90.04
2018-12-30T06:51:31.210Z,90.21
2018-12-30T06:54:06.851Z,90.26
2018-12-30T06:56:38.284Z,89.98
2018-12-30T06:59:09.137Z,90.05
2018-12-30T07:01:39.995Z,90.20
2018-12-30T07:04:11.225Z,90.28
2018-12-30T07:06:42.090Z,90.29
2018-12-30T07:09:13.359Z,90.27
2018-12-30T07:11:44.178Z,90.29
2018-12-30T07:14:15.007Z,90.12
2018-12-30T07:16:46.088Z,90.01
2018-12-30T07:19:17.003Z,90.15
2018-12-30T07:21:48.133Z,90.39
2018-12-30T07:24:18.965Z,90.34
2018-12-30T07:26:50.649Z,89.89
2018-12-30T07:29:21.846Z,90.04
2018-12-30T07:31:53.058Z,90.09
2018-12-30T07:34:24.309Z,90.00
2018-12-30T07:36:55.286Z,90.00
2018-12-30T07:39:26.149Z,89.96
2018-12-30T07:41:57.078Z,89.98
2018-12-30T07:44:28.027Z,90.30
2018-12-30T07:46:59.627Z,90.29
2018-12-30T07:49:30.486Z,89.89
2018-12-30T07:52:03.059Z,90.09
2018-12-30T07:54:34.223Z,90.38
2018-12-30T07:57:05.070Z,89.94
2018-12-30T07:59:36.448Z,89.88
2018-12-30T08:02:07.305Z,90.22
2018-12-30T08:04:38.148Z,90.20
2018-12-30T08:07:09.077Z,90.21
2018-12-30T08:09:40.242Z,90.61
2018-12-30T08:12:11.293Z,90.78
2018-12-30T08:14:42.498Z,90.85
2018-12-30T08:17:13.709Z,91.12
2018-12-30T08:19:44.552Z,91.22
2018-12-30T08:22:15.481Z,91.10
2018-12-30T08:24:46.314Z,90.77
2018-12-30T08:27:17.577Z,90.65
2018-12-30T08:29:48.428Z,90.89
2018-12-30T08:32:19.252Z,90.77
2018-12-30T08:34:50.715Z,90.76
2018-12-30T08:37:22.009Z,91.03
2018-12-30T08:39:53.271Z,91.47
2018-12-30T08:42:24.264Z,91.52
2018-12-30T08:44:55.115Z,91.51
2018-12-30T08:47:26.154Z,92.01
2018-12-30T08:49:57.245Z,92.47
2018-12-30T08:52:28.347Z,92.77
2018-12-30T08:54:59.347Z,93.32
2018-12-30T08:57:30.235Z,94.08
2018-12-30T09:00:02.093Z,94.54
2018-12-30T09:02:34.410Z,94.54
2018-12-30T09:05:05.581Z,94.83
2018-12-30T09:07:36.791Z,94.87
2018-12-30T09:10:08.198Z,95.59
2018-12-30T09:12:39.125Z,95.60
2018-12-30T09:15:10.338Z,95.70
2018-12-30T09:17:41.368Z,95.86
2018-12-30T09:20:12.306Z,95.81
2018-12-30T09:22:43.300Z,95.54
2018-12-30T09:25:14.245Z,95.48
2018-12-30T09:27:45.136Z,95.75
2018-12-30T09:30:16.127Z,96.49
2018-12-30T09:32:47.267Z,96.14
2018-12-30T09:35:18.218Z,96.00
2018-12-30T09:37:49.118Z,96.45
2018-12-30T09:40:19.985Z,96.82
2018-12-30T09:42:51.262Z,97.38
2018-12-30T09:45:22.433Z,97.86
2018-12-30T09:47:53.279Z,97.96
2018-12-30T09:50:24.281Z,98.36
2018-12-30T09:52:55.187Z,98.66
2018-12-30T09:55:26.736Z,98.53
2018-12-30T09:57:57.940Z,99.00
2018-12-30T10:00:29.302Z,99.21
2018-12-30T10:03:00.284Z,99.29
2018-12-30T10:05:31.327Z,99.26
2018-12-30T10:08:02.448Z,99.26
2018-12-30T10:10:33.333Z,99.06
2018-12-30T10:13:04.271Z,99.06
2018-12-30T10:15:35.284Z,98.98
2018-12-30T10:18:06.263Z,99.07
2018-12-30T10:20:37.519Z,99.58
2018-12-30T10:23:08.392Z,100.00
2018-12-30T10:25:39.375Z,100.00
2018-12-30T10:28:10.502Z,100.00
2018-12-30T10:30:41.400Z,100.00
2018-12-30T10:33:12.483Z,100.00
2018-12-30T10:35:43.375Z,100.00
2018-12-30T10:38:14.358Z,100.00
2018-12-30T10:40:45.363Z,100.00
2018-12-30T10:43:16.378Z,100.00
2018-12-30T10:45:47.348Z,100.00
2018-12-30T10:48:18.398Z,100.00
2018-12-30T10:50:49.379Z,100.00
2018-12-30T10:53:20.313Z,100.00
2018-12-30T10:55:51.336Z,100.00
2018-12-30T10:58:22.300Z,100.00
2018-12-30T11:00:53.551Z,100.00
2018-12-30T11:03:24.435Z,100.00
2018-12-30T11:05:55.373Z,100.00
2018-12-30T11:08:26.615Z,100.00
2018-12-30T11:10:57.798Z,100.00
2018-12-30T11:13:30.634Z,100.00
2018-12-30T11:16:01.851Z,100.00
2018-12-30T11:18:33.156Z,100.00
2018-12-30T11:21:04.110Z,100.00
2018-12-30T11:23:34.980Z,100.00
2018-12-30T11:26:06.492Z,100.00
2018-12-30T11:28:37.504Z,100.00
2018-12-30T11:31:08.533Z,100.00
2018-12-30T11:33:39.523Z,100.00
2018-12-30T11:36:11.703Z,100.00
2018-12-30T11:38:43.120Z,100.00
2018-12-30T11:41:14.101Z,100.00
2018-12-30T11:43:45.443Z,100.00
2018-12-30T11:46:17.066Z,100.00
2018-12-30T11:48:47.965Z,100.00
2018-12-30T11:51:19.863Z,100.00
2018-12-30T11:53:51.283Z,100.00
2018-12-30T11:56:22.328Z,100.00
2018-12-30T11:58:53.340Z,100.00
2018-12-30T12:01:24.347Z,100.00
2018-12-30T12:03:55.392Z,99.30
2018-12-30T12:06:26.330Z,99.59
2018-12-30T12:08:57.348Z,99.67
2018-12-30T12:11:28.337Z,100.00
2018-12-30T12:13:59.267Z,100.00
2018-12-30T12:16:30.477Z,99.84
2018-12-30T12:19:02.423Z,99.75
2018-12-30T12:21:33.288Z,99.98
2018-12-30T12:24:04.218Z,100.00
2018-12-30T12:26:39.874Z,100.00
2018-12-30T12:29:12.230Z,100.00
2018-12-30T12:31:43.080Z,100.00
2018-12-30T12:34:14.612Z,100.00
2018-12-30T12:36:45.587Z,100.00
2018-12-30T12:39:16.496Z,100.00
2018-12-30T12:45:07.652Z,100.00
2018-12-30T12:47:41.835Z,99.87
2018-12-30T12:50:13.799Z,100.00
2018-12-30T12:52:44.553Z,99.73
2018-12-30T12:55:15.097Z,99.96
2018-12-30T12:57:45.835Z,99.62
2018-12-30T13:00:16.740Z,99.84
2018-12-30T13:02:47.426Z,99.79
2018-12-30T13:05:17.861Z,99.67
2018-12-30T13:07:48.593Z,99.35
2018-12-30T13:10:19.023Z,98.58
2018-12-30T13:12:50.281Z,98.35
2018-12-30T13:15:20.716Z,98.17
2018-12-30T13:17:54.000Z,97.45
2018-12-30T13:20:24.858Z,97.04
2018-12-30T13:22:55.626Z,96.97
2018-12-30T13:25:26.444Z,97.57
2018-12-30T13:27:56.955Z,97.39
2018-12-30T13:30:27.748Z,97.06
2018-12-30T13:32:58.362Z,97.67
2018-12-30T13:35:28.787Z,97.33
2018-12-30T13:37:59.930Z,97.24
2018-12-30T13:40:30.541Z,97.37
2018-12-30T13:43:01.148Z,98.00
2018-12-30T13:45:32.339Z,98.29
2018-12-30T13:48:05.046Z,98.29
2018-12-30T13:50:35.958Z,99.42
2018-12-30T13:53:06.737Z,99.42
2018-12-30T13:55:37.470Z,99.69
2018-12-30T13:58:08.127Z,99.46
2018-12-30T14:00:38.801Z,99.34
2018-12-30T14:03:09.619Z,99.42
2018-12-30T14:05:40.078Z,99.28
2018-12-30T14:08:10.551Z,98.92
2018-12-30T14:10:41.034Z,98.92
2018-12-30T14:13:12.165Z,99.17
2018-12-30T14:15:50.652Z,99.34
2018-12-30T14:18:15.479Z,99.54
2018-12-30T14:20:45.906Z,99.67
2018-12-30T14:23:16.657Z,99.73
2018-12-30T14:25:47.399Z,99.90
2018-12-30T14:28:17.970Z,99.37
2018-12-30T14:30:48.681Z,99.31
2018-12-30T14:33:19.181Z,99.09
2018-12-30T14:35:49.867Z,98.76
2018-12-30T14:38:20.672Z,97.94
2018-12-30T14:40:51.587Z,97.08
2018-12-30T14:43:22.037Z,96.71
2018-12-30T14:45:52.633Z,96.88
2018-12-30T14:48:23.498Z,96.88
2018-12-30T14:50:54.098Z,96.69
2018-12-30T14:53:25.012Z,96.34
2018-12-30T14:55:56.043Z,95.47
2018-12-30T14:58:28.106Z,95.41
2018-12-30T15:00:59.141Z,95.10
2018-12-30T15:03:30.026Z,95.24
2018-12-30T15:06:00.970Z,94.84
2018-12-30T15:08:31.948Z,95.19
2018-12-30T15:11:04.201Z,95.21
2018-12-30T15:13:35.083Z,95.21
2018-12-30T15:16:05.859Z,94.66
2018-12-30T15:18:36.537Z,94.67
2018-12-30T15:21:07.359Z,94.48
2018-12-30T15:23:38.046Z,95.01
2018-12-30T15:26:08.869Z,94.45
2018-12-30T15:28:40.874Z,93.95
2018-12-30T15:31:12.399Z,94.12
2018-12-30T15:33:43.356Z,93.73
2018-12-30T15:36:15.211Z,93.57
2018-12-30T15:38:58.211Z,93.53
2018-12-30T15:41:32.032Z,93.53
2018-12-30T15:47:44.698Z,93.80
2018-12-30T15:50:15.248Z,93.44
2018-12-30T15:52:46.479Z,93.46
2018-12-30T15:55:19.605Z,93.07
2018-12-30T15:57:50.069Z,93.17
2018-12-30T16:00:36.163Z,92.85
2018-12-30T16:03:49.972Z,92.36
2018-12-30T16:06:27.269Z,92.87
2018-12-30T16:09:18.814Z,92.87
2018-12-30T16:11:49.866Z,92.68
2018-12-30T16:14:20.620Z,92.76
2018-12-30T16:16:51.649Z,92.92
2018-12-30T16:19:23.120Z,93.19
2018-12-30T16:21:53.572Z,93.08
2018-12-30T16:24:24.088Z,92.68
2018-12-30T16:26:54.544Z,92.68
2018-12-30T16:29:24.983Z,92.56
2018-12-30T16:31:55.738Z,91.43
2018-12-30T16:34:26.691Z,91.37
2018-12-30T16:36:57.519Z,91.16
2018-12-30T16:39:27.994Z,91.14
2018-12-30T16:42:00.628Z,91.09
2018-12-30T16:44:31.144Z,91.04
2018-12-30T16:47:02.108Z,90.63
2018-12-30T16:49:32.916Z,90.54
2018-12-30T16:52:04.044Z,90.60
2018-12-30T16:54:34.872Z,90.59
2018-12-30T16:57:05.681Z,90.52
2018-12-30T16:59:36.122Z,90.44
2018-12-30T17:02:07.650Z,90.54
2018-12-30T17:04:38.222Z,90.23
2018-12-30T17:07:08.884Z,90.23
2018-12-30T17:09:39.693Z,90.17
2018-12-30T17:12:10.454Z,90.62
2018-12-30T17:14:41.039Z,90.65
2018-12-30T17:17:11.628Z,90.69
2018-12-30T17:19:42.400Z,91.01
2018-12-30T17:22:12.982Z,90.87
2018-12-30T17:24:43.711Z,90.96
2018-12-30T17:27:15.799Z,90.69
2018-12-30T17:29:46.925Z,90.69
2018-12-30T17:32:17.629Z,90.80
2018-12-30T17:34:49.768Z,91.06
2018-12-30T17:37:22.458Z,91.11
2018-12-30T17:39:53.298Z,91.11
2018-12-30T17:42:23.950Z,91.12
2018-12-30T17:44:54.655Z,95.55
2018-12-30T17:47:29.729Z,98.87
2018-12-30T17:50:05.296Z,90.70
2018-12-30T17:52:37.115Z,89.43
2018-12-30T17:55:08.132Z,87.67
2018-12-30T17:57:41.430Z,88.26
2018-12-30T18:00:12.305Z,89.09
2018-12-30T18:02:43.307Z,89.58
2018-12-30T18:05:14.991Z,89.79
2018-12-30T18:07:45.759Z,90.04
2018-12-30T18:10:16.506Z,90.19
2018-12-30T18:12:46.974Z,90.19
2018-12-30T18:15:17.820Z,90.40
2018-12-30T18:17:49.004Z,90.19
2018-12-30T18:20:19.891Z,90.39
2018-12-30T18:22:50.517Z,90.44
2018-12-30T18:25:21.890Z,90.30
2018-12-30T18:27:52.665Z,90.13
2018-12-30T18:30:23.133Z,90.39
2018-12-30T18:32:54.171Z,90.24
2018-12-30T18:35:24.997Z,90.22
2018-12-30T18:37:56.182Z,90.30
2018-12-30T18:40:27.279Z,90.14
2018-12-30T18:42:58.150Z,90.09
2018-12-30T18:45:29.103Z,90.16
2018-12-30T18:47:59.957Z,89.95
2018-12-30T18:50:30.390Z,90.01
2018-12-30T18:53:01.445Z,90.21
2018-12-30T18:55:31.908Z,90.64
2018-12-30T18:58:02.884Z,90.71
2018-12-30T19:00:34.124Z,90.67
2018-12-30T19:03:04.896Z,90.73
2018-12-30T19:05:35.665Z,90.90
2018-12-30T19:08:06.419Z,90.98
2018-12-30T19:10:37.309Z,90.85
2018-12-30T19:13:07.727Z,90.69
2018-12-30T19:15:38.461Z,90.64
2018-12-30T19:18:08.974Z,90.70
2018-12-30T19:20:39.521Z,90.75
2018-12-30T19:23:10.138Z,90.65
2018-12-30T19:25:41.736Z,90.49
2018-12-30T19:28:12.737Z,90.56
2018-12-30T19:30:50.751Z,90.46
2018-12-30T19:33:21.474Z,90.29
2018-12-30T19:35:52.175Z,90.36
2018-12-30T19:38:22.670Z,90.12
2018-12-30T19:40:53.506Z,90.09
2018-12-30T19:43:24.321Z,89.80
2018-12-30T19:45:54.804Z,89.87
2018-12-30T19:48:33.601Z,90.46
2018-12-30T19:51:04.193Z,90.44
2018-12-30T19:53:34.826Z,90.95
2018-12-30T19:56:05.791Z,91.00
2018-12-30T19:58:36.590Z,91.28
2018-12-30T20:01:07.185Z,91.03
2018-12-30T20:03:37.986Z,90.55
2018-12-30T20:06:08.632Z,90.71
2018-12-30T20:08:39.218Z,90.56
2018-12-30T20:11:09.977Z,90.10
2018-12-30T20:13:40.937Z,90.21
2018-12-30T20:16:11.868Z,90.23
2018-12-30T20:18:42.575Z,89.84
2018-12-30T20:21:13.363Z,89.50
2018-12-30T20:23:43.938Z,89.37
2018-12-30T20:26:14.702Z,89.27
2018-12-30T20:28:45.530Z,87.30
2018-12-30T20:31:15.998Z,87.24
2018-12-30T20:33:48.484Z,87.11
2018-12-30T20:36:18.970Z,86.66
2018-12-30T20:38:49.782Z,86.50
2018-12-30T20:41:20.677Z,86.38
2018-12-30T20:43:51.466Z,85.68
2018-12-30T20:46:22.169Z,85.21
2018-12-30T20:48:52.667Z,84.97
2018-12-30T20:51:23.321Z,85.16
2018-12-30T20:53:55.046Z,84.86
2018-12-30T20:56:25.695Z,85.02
2018-12-30T20:58:56.579Z,85.00
2018-12-30T21:01:27.258Z,85.00
2018-12-30T21:03:58.000Z,85.50
2018-12-30T21:06:28.896Z,85.65
2018-12-30T21:08:59.720Z,85.78
2018-12-30T21:11:30.642Z,86.43
2018-12-30T21:14:01.281Z,86.63
2018-12-30T21:16:32.041Z,86.97
2018-12-30T21:19:04.499Z,87.13
2018-12-30T21:21:34.959Z,87.40
2018-12-30T21:24:05.977Z,87.47
2018-12-30T21:26:36.994Z,87.63
2018-12-30T21:29:07.776Z,87.60
2018-12-30T21:31:38.515Z,87.46
2018-12-30T21:34:08.908Z,87.73
2018-12-30T21:36:39.837Z,87.56
2018-12-30T21:39:10.893Z,87.34
2018-12-30T21:41:42.213Z,87.31
2018-12-30T21:44:12.960Z,87.18
2018-12-30T21:46:43.723Z,87.07
2018-12-30T21:49:16.932Z,87.10
2018-12-30T21:51:47.594Z,87.21
2018-12-30T21:54:18.991Z,87.33
2018-12-30T21:56:54.714Z,87.38
2018-12-30T21:59:21.800Z,87.48
2018-12-30T22:01:52.664Z,87.60
2018-12-30T22:04:23.077Z,87.71
2018-12-30T22:06:53.589Z,87.55
2018-12-30T22:09:24.038Z,87.46
2018-12-30T22:11:54.720Z,87.48
2018-12-30T22:14:26.700Z,87.46
2018-12-30T22:16:57.046Z,87.64
2018-12-30T22:19:27.449Z,87.90
2018-12-30T22:21:57.968Z,87.77
2018-12-30T22:24:28.486Z,87.62
2018-12-30T22:26:58.887Z,86.93
2018-12-30T22:29:29.553Z,86.90
2018-12-30T22:31:59.947Z,87.30
2018-12-30T22:34:31.032Z,87.37
2018-12-30T22:37:01.644Z,87.70
2018-12-30T22:39:32.003Z,87.70
2018-12-30T22:42:02.735Z,87.96
2018-12-30T22:44:33.087Z,88.17
2018-12-30T22:47:03.751Z,88.23
2018-12-30T22:49:34.505Z,88.32
2018-12-30T22:52:04.988Z,88.29
2018-12-30T22:54:35.702Z,88.40
2018-12-30T22:57:06.079Z,88.24
2018-12-30T22:59:36.521Z,88.48
2018-12-30T23:02:06.942Z,87.89
2018-12-30T23:04:37.588Z,87.69
2018-12-30T23:07:08.140Z,87.69
2018-12-30T23:09:38.562Z,87.77
2018-12-30T23:12:08.982Z,87.22
2018-12-30T23:14:39.658Z,86.96
2018-12-30T23:17:10.017Z,87.08
2018-12-30T23:19:40.801Z,86.78
2018-12-30T23:22:11.536Z,86.54
2018-12-30T23:24:41.904Z,86.32
2018-12-30T23:27:12.536Z,86.07
2018-12-30T23:29:42.926Z,86.42
2018-12-30T23:32:13.635Z,86.42
2018-12-30T23:34:44.059Z,86.42
2018-12-30T23:37:14.679Z,86.63
2018-12-30T23:39:45.138Z,86.80
2018-12-30T23:42:15.876Z,87.16
2018-12-30T23:44:46.733Z,87.33
2018-12-30T23:47:17.393Z,87.75
2018-12-30T23:49:47.732Z,87.99
2018-12-30T23:52:18.443Z,88.03
2018-12-30T23:54:48.806Z,87.91
2018-12-30T23:57:19.768Z,87.38
2018-12-30T23:59:50.421Z,87.39
